sensor_id;sensor_type;location;lat;lon;timestamp;P1;durP1;ratioP1;P2;durP2;ratioP2
71475;SDS011;59286;59.274;17.974;2023-07-22T00:01:05;2.75;;;0.82;;
71475;SDS011;59286;59.274;17.974;2023-07-22T00:03:31;3.20;;;0.90;;
71475;SDS011;59286;59.274;17.974;2023-07-22T00:06:06;3.50;;;0.93;;
71475;SDS011;59286;59.274;17.974;2023-07-22T00:08:33;6.97;;;0.73;;
71475;SDS011;59286;59.274;17.974;2023-07-22T00:10:59;3.55;;;0.70;;
71475;SDS011;59286;59.274;17.974;2023-07-22T00:13:24;4.20;;;0.63;;
71475;SDS011;59286;59.274;17.974;2023-07-22T00:15:52;4.78;;;1.00;;
71475;SDS011;59286;59.274;17.974;2023-07-22T00:18:18;3.88;;;0.80;;
71475;SDS011;59286;59.274;17.974;2023-07-22T00:20:44;1.65;;;0.80;;
71475;SDS011;59286;59.274;17.974;2023-07-22T00:23:09;4.30;;;1.20;;
71475;SDS011;59286;59.274;17.974;2023-07-22T00:25:35;4.55;;;1.10;;
71475;SDS011;59286;59.274;17.974;2023-07-22T00:28:01;2.63;;;0.85;;
71475;SDS011;59286;59.274;17.974;2023-07-22T00:30:26;3.35;;;0.60;;
71475;SDS011;59286;59.274;17.974;2023-07-22T00:32:53;4.15;;;0.93;;
71475;SDS011;59286;59.274;17.974;2023-07-22T00:35:19;2.95;;;0.85;;
71475;SDS011;59286;59.274;17.974;2023-07-22T00:37:44;3.92;;;0.82;;
71475;SDS011;59286;59.274;17.974;2023-07-22T00:40:09;2.10;;;0.88;;
71475;SDS011;59286;59.274;17.974;2023-07-22T00:42:39;4.03;;;0.95;;
71475;SDS011;59286;59.274;17.974;2023-07-22T00:45:04;2.08;;;0.88;;
71475;SDS011;59286;59.274;17.974;2023-07-22T00:47:31;2.75;;;0.85;;
71475;SDS011;59286;59.274;17.974;2023-07-22T00:49:58;2.45;;;0.88;;
71475;SDS011;59286;59.274;17.974;2023-07-22T00:52:25;4.13;;;0.90;;
71475;SDS011;59286;59.274;17.974;2023-07-22T00:54:51;6.60;;;1.17;;
71475;SDS011;59286;59.274;17.974;2023-07-22T00:57:17;5.00;;;1.10;;
71475;SDS011;59286;59.274;17.974;2023-07-22T00:59:43;2.92;;;0.70;;
71475;SDS011;59286;59.274;17.974;2023-07-22T01:02:09;1.85;;;0.88;;
71475;SDS011;59286;59.274;17.974;2023-07-22T01:04:35;4.82;;;1.00;;
71475;SDS011;59286;59.274;17.974;2023-07-22T01:07:01;5.53;;;0.80;;
71475;SDS011;59286;59.274;17.974;2023-07-22T01:09:37;3.97;;;0.80;;
71475;SDS011;59286;59.274;17.974;2023-07-22T01:12:04;4.70;;;0.98;;
71475;SDS011;59286;59.274;17.974;2023-07-22T01:14:38;3.92;;;0.80;;
71475;SDS011;59286;59.274;17.974;2023-07-22T01:17:05;6.65;;;0.90;;
71475;SDS011;59286;59.274;17.974;2023-07-22T01:19:32;6.25;;;0.98;;
71475;SDS011;59286;59.274;17.974;2023-07-22T01:22:02;5.10;;;0.73;;
71475;SDS011;59286;59.274;17.974;2023-07-22T01:24:29;2.35;;;0.82;;
71475;SDS011;59286;59.274;17.974;2023-07-22T01:26:55;4.78;;;0.98;;
71475;SDS011;59286;59.274;17.974;2023-07-22T01:29:22;3.88;;;0.90;;
71475;SDS011;59286;59.274;17.974;2023-07-22T01:31:49;4.47;;;1.00;;
71475;SDS011;59286;59.274;17.974;2023-07-22T01:34:16;6.35;;;0.93;;
71475;SDS011;59286;59.274;17.974;2023-07-22T01:36:42;3.67;;;0.80;;
71475;SDS011;59286;59.274;17.974;2023-07-22T01:39:08;2.65;;;0.70;;
71475;SDS011;59286;59.274;17.974;2023-07-22T01:41:33;1.67;;;0.70;;
71475;SDS011;59286;59.274;17.974;2023-07-22T01:43:58;2.88;;;0.70;;
71475;SDS011;59286;59.274;17.974;2023-07-22T01:46:24;2.92;;;0.90;;
71475;SDS011;59286;59.274;17.974;2023-07-22T01:48:50;3.80;;;0.80;;
71475;SDS011;59286;59.274;17.974;2023-07-22T01:51:15;1.30;;;0.80;;
71475;SDS011;59286;59.274;17.974;2023-07-22T01:53:41;2.88;;;0.80;;
71475;SDS011;59286;59.274;17.974;2023-07-22T01:56:06;3.70;;;1.10;;
71475;SDS011;59286;59.274;17.974;2023-07-22T01:58:32;5.97;;;0.88;;
71475;SDS011;59286;59.274;17.974;2023-07-22T02:00:57;2.20;;;0.90;;
71475;SDS011;59286;59.274;17.974;2023-07-22T02:03:23;5.55;;;1.00;;
71475;SDS011;59286;59.274;17.974;2023-07-22T02:05:48;3.03;;;0.80;;
71475;SDS011;59286;59.274;17.974;2023-07-22T02:08:14;1.92;;;0.73;;
71475;SDS011;59286;59.274;17.974;2023-07-22T02:10:39;2.50;;;1.35;;
71475;SDS011;59286;59.274;17.974;2023-07-22T02:13:04;2.58;;;0.90;;
71475;SDS011;59286;59.274;17.974;2023-07-22T02:15:31;4.47;;;1.45;;
71475;SDS011;59286;59.274;17.974;2023-07-22T02:17:58;5.22;;;1.05;;
71475;SDS011;59286;59.274;17.974;2023-07-22T02:20:23;4.15;;;0.90;;
71475;SDS011;59286;59.274;17.974;2023-07-22T02:22:51;4.15;;;0.98;;
71475;SDS011;59286;59.274;17.974;2023-07-22T02:25:17;4.25;;;1.05;;
71475;SDS011;59286;59.274;17.974;2023-07-22T02:27:42;3.20;;;0.80;;
71475;SDS011;59286;59.274;17.974;2023-07-22T02:30:08;5.75;;;1.10;;
71475;SDS011;59286;59.274;17.974;2023-07-22T02:32:39;2.70;;;0.80;;
71475;SDS011;59286;59.274;17.974;2023-07-22T02:35:08;2.00;;;0.85;;
71475;SDS011;59286;59.274;17.974;2023-07-22T02:37:36;2.80;;;0.80;;
71475;SDS011;59286;59.274;17.974;2023-07-22T02:40:03;1.90;;;0.70;;
71475;SDS011;59286;59.274;17.974;2023-07-22T02:42:33;3.70;;;0.80;;
71475;SDS011;59286;59.274;17.974;2023-07-22T02:45:00;2.75;;;1.15;;
71475;SDS011;59286;59.274;17.974;2023-07-22T02:47:26;4.38;;;0.95;;
71475;SDS011;59286;59.274;17.974;2023-07-22T02:49:51;2.55;;;0.88;;
71475;SDS011;59286;59.274;17.974;2023-07-22T02:52:16;1.70;;;0.70;;
71475;SDS011;59286;59.274;17.974;2023-07-22T02:54:42;3.30;;;0.90;;
71475;SDS011;59286;59.274;17.974;2023-07-22T02:57:32;2.42;;;1.00;;
71475;SDS011;59286;59.274;17.974;2023-07-22T02:59:57;2.47;;;0.85;;
71475;SDS011;59286;59.274;17.974;2023-07-22T03:02:23;3.35;;;1.15;;
71475;SDS011;59286;59.274;17.974;2023-07-22T03:04:48;4.15;;;0.80;;
71475;SDS011;59286;59.274;17.974;2023-07-22T03:07:13;3.53;;;0.90;;
71475;SDS011;59286;59.274;17.974;2023-07-22T03:09:39;4.28;;;0.82;;
71475;SDS011;59286;59.274;17.974;2023-07-22T03:12:05;2.03;;;0.90;;
71475;SDS011;59286;59.274;17.974;2023-07-22T03:14:30;2.55;;;0.82;;
71475;SDS011;59286;59.274;17.974;2023-07-22T03:17:01;2.60;;;0.90;;
71475;SDS011;59286;59.274;17.974;2023-07-22T03:19:27;4.68;;;0.98;;
71475;SDS011;59286;59.274;17.974;2023-07-22T03:21:52;3.00;;;0.80;;
71475;SDS011;59286;59.274;17.974;2023-07-22T03:24:17;1.95;;;0.95;;
71475;SDS011;59286;59.274;17.974;2023-07-22T03:26:43;2.58;;;1.00;;
71475;SDS011;59286;59.274;17.974;2023-07-22T03:29:09;4.30;;;1.08;;
71475;SDS011;59286;59.274;17.974;2023-07-22T03:31:34;2.10;;;0.75;;
71475;SDS011;59286;59.274;17.974;2023-07-22T03:33:59;3.70;;;0.88;;
71475;SDS011;59286;59.274;17.974;2023-07-22T03:36:25;1.80;;;0.70;;
71475;SDS011;59286;59.274;17.974;2023-07-22T03:38:51;2.70;;;0.70;;
71475;SDS011;59286;59.274;17.974;2023-07-22T03:41:17;3.85;;;0.80;;
71475;SDS011;59286;59.274;17.974;2023-07-22T03:43:42;2.63;;;0.80;;
71475;SDS011;59286;59.274;17.974;2023-07-22T03:46:08;2.47;;;0.90;;
71475;SDS011;59286;59.274;17.974;2023-07-22T03:48:34;3.35;;;0.98;;
71475;SDS011;59286;59.274;17.974;2023-07-22T03:50:59;3.53;;;0.95;;
71475;SDS011;59286;59.274;17.974;2023-07-22T03:53:24;1.83;;;0.65;;
71475;SDS011;59286;59.274;17.974;2023-07-22T03:55:50;3.13;;;0.68;;
71475;SDS011;59286;59.274;17.974;2023-07-22T03:58:15;3.05;;;0.75;;
71475;SDS011;59286;59.274;17.974;2023-07-22T04:00:41;2.45;;;0.77;;
71475;SDS011;59286;59.274;17.974;2023-07-22T04:03:06;6.93;;;0.98;;
71475;SDS011;59286;59.274;17.974;2023-07-22T04:05:31;5.32;;;0.93;;
71475;SDS011;59286;59.274;17.974;2023-07-22T04:07:57;5.65;;;1.00;;
71475;SDS011;59286;59.274;17.974;2023-07-22T04:10:22;2.45;;;0.90;;
71475;SDS011;59286;59.274;17.974;2023-07-22T04:12:48;5.72;;;1.08;;
71475;SDS011;59286;59.274;17.974;2023-07-22T04:15:13;5.95;;;1.27;;
71475;SDS011;59286;59.274;17.974;2023-07-22T04:17:40;5.68;;;0.90;;
71475;SDS011;59286;59.274;17.974;2023-07-22T04:20:05;3.90;;;0.80;;
71475;SDS011;59286;59.274;17.974;2023-07-22T04:22:33;3.60;;;0.80;;
71475;SDS011;59286;59.274;17.974;2023-07-22T04:24:58;4.90;;;0.80;;
71475;SDS011;59286;59.274;17.974;2023-07-22T04:27:24;2.72;;;0.90;;
71475;SDS011;59286;59.274;17.974;2023-07-22T04:29:51;1.60;;;0.73;;
71475;SDS011;59286;59.274;17.974;2023-07-22T04:32:16;3.28;;;0.93;;
71475;SDS011;59286;59.274;17.974;2023-07-22T04:34:42;4.75;;;1.00;;
71475;SDS011;59286;59.274;17.974;2023-07-22T04:37:07;2.47;;;0.85;;
71475;SDS011;59286;59.274;17.974;2023-07-22T04:39:32;4.63;;;0.75;;
71475;SDS011;59286;59.274;17.974;2023-07-22T04:41:58;2.42;;;0.77;;
71475;SDS011;59286;59.274;17.974;2023-07-22T04:44:23;1.60;;;0.70;;
71475;SDS011;59286;59.274;17.974;2023-07-22T04:46:49;7.15;;;0.95;;
71475;SDS011;59286;59.274;17.974;2023-07-22T04:49:14;4.93;;;1.23;;
71475;SDS011;59286;59.274;17.974;2023-07-22T04:51:42;3.92;;;0.98;;
71475;SDS011;59286;59.274;17.974;2023-07-22T04:54:09;4.50;;;0.80;;
71475;SDS011;59286;59.274;17.974;2023-07-22T04:56:34;5.40;;;1.00;;
71475;SDS011;59286;59.274;17.974;2023-07-22T04:59:00;3.00;;;1.00;;
71475;SDS011;59286;59.274;17.974;2023-07-22T05:01:25;6.00;;;1.25;;
71475;SDS011;59286;59.274;17.974;2023-07-22T05:03:51;5.13;;;0.80;;
71475;SDS011;59286;59.274;17.974;2023-07-22T05:06:17;5.25;;;1.30;;
71475;SDS011;59286;59.274;17.974;2023-07-22T05:08:42;4.28;;;0.90;;
71475;SDS011;59286;59.274;17.974;2023-07-22T05:11:07;3.83;;;0.80;;
71475;SDS011;59286;59.274;17.974;2023-07-22T05:13:33;1.10;;;0.57;;
71475;SDS011;59286;59.274;17.974;2023-07-22T05:15:58;5.85;;;1.10;;
71475;SDS011;59286;59.274;17.974;2023-07-22T05:18:23;2.85;;;0.70;;
71475;SDS011;59286;59.274;17.974;2023-07-22T05:20:49;3.88;;;0.90;;
71475;SDS011;59286;59.274;17.974;2023-07-22T05:23:14;2.95;;;0.80;;
71475;SDS011;59286;59.274;17.974;2023-07-22T05:25:39;3.45;;;0.90;;
71475;SDS011;59286;59.274;17.974;2023-07-22T05:28:05;4.07;;;1.00;;
71475;SDS011;59286;59.274;17.974;2023-07-22T05:30:30;5.30;;;1.08;;
71475;SDS011;59286;59.274;17.974;2023-07-22T05:32:56;2.60;;;0.80;;
71475;SDS011;59286;59.274;17.974;2023-07-22T05:35:21;5.60;;;0.90;;
71475;SDS011;59286;59.274;17.974;2023-07-22T05:37:46;5.60;;;0.90;;
71475;SDS011;59286;59.274;17.974;2023-07-22T05:40:12;2.80;;;0.80;;
71475;SDS011;59286;59.274;17.974;2023-07-22T05:42:38;3.50;;;0.90;;
71475;SDS011;59286;59.274;17.974;2023-07-22T05:45:04;3.80;;;0.98;;
71475;SDS011;59286;59.274;17.974;2023-07-22T05:47:29;4.55;;;0.90;;
71475;SDS011;59286;59.274;17.974;2023-07-22T05:49:54;2.75;;;0.85;;
71475;SDS011;59286;59.274;17.974;2023-07-22T05:52:20;4.57;;;0.82;;
71475;SDS011;59286;59.274;17.974;2023-07-22T05:54:45;4.25;;;0.80;;
71475;SDS011;59286;59.274;17.974;2023-07-22T05:57:11;3.60;;;0.90;;
71475;SDS011;59286;59.274;17.974;2023-07-22T05:59:36;2.15;;;0.80;;
71475;SDS011;59286;59.274;17.974;2023-07-22T06:02:02;4.32;;;1.17;;
71475;SDS011;59286;59.274;17.974;2023-07-22T06:04:28;2.38;;;0.80;;
71475;SDS011;59286;59.274;17.974;2023-07-22T06:06:54;5.85;;;1.45;;
71475;SDS011;59286;59.274;17.974;2023-07-22T06:09:19;3.70;;;0.80;;
71475;SDS011;59286;59.274;17.974;2023-07-22T06:11:45;6.28;;;1.08;;
71475;SDS011;59286;59.274;17.974;2023-07-22T06:14:10;4.88;;;0.90;;
71475;SDS011;59286;59.274;17.974;2023-07-22T06:16:36;3.63;;;0.88;;
71475;SDS011;59286;59.274;17.974;2023-07-22T06:19:02;6.75;;;0.82;;
71475;SDS011;59286;59.274;17.974;2023-07-22T06:21:29;8.63;;;1.20;;
71475;SDS011;59286;59.274;17.974;2023-07-22T06:23:54;5.13;;;1.00;;
71475;SDS011;59286;59.274;17.974;2023-07-22T06:26:19;7.60;;;1.30;;
71475;SDS011;59286;59.274;17.974;2023-07-22T06:28:45;1.15;;;0.60;;
71475;SDS011;59286;59.274;17.974;2023-07-22T06:31:10;4.47;;;0.93;;
71475;SDS011;59286;59.274;17.974;2023-07-22T06:33:35;3.80;;;1.00;;
71475;SDS011;59286;59.274;17.974;2023-07-22T06:36:01;7.97;;;1.00;;
71475;SDS011;59286;59.274;17.974;2023-07-22T06:38:26;3.42;;;0.80;;
71475;SDS011;59286;59.274;17.974;2023-07-22T06:40:54;6.00;;;1.08;;
71475;SDS011;59286;59.274;17.974;2023-07-22T06:43:20;5.75;;;0.90;;
71475;SDS011;59286;59.274;17.974;2023-07-22T06:45:45;4.25;;;1.08;;
71475;SDS011;59286;59.274;17.974;2023-07-22T06:48:10;2.28;;;0.60;;
71475;SDS011;59286;59.274;17.974;2023-07-22T06:50:36;5.60;;;0.77;;
71475;SDS011;59286;59.274;17.974;2023-07-22T06:53:01;5.82;;;1.13;;
71475;SDS011;59286;59.274;17.974;2023-07-22T06:55:26;3.92;;;0.95;;
71475;SDS011;59286;59.274;17.974;2023-07-22T06:57:52;4.47;;;0.80;;
71475;SDS011;59286;59.274;17.974;2023-07-22T07:00:17;2.55;;;0.63;;
71475;SDS011;59286;59.274;17.974;2023-07-22T07:02:42;4.25;;;0.93;;
71475;SDS011;59286;59.274;17.974;2023-07-22T07:05:08;3.40;;;0.50;;
71475;SDS011;59286;59.274;17.974;2023-07-22T07:07:33;6.28;;;1.10;;
71475;SDS011;59286;59.274;17.974;2023-07-22T07:09:58;3.10;;;0.75;;
71475;SDS011;59286;59.274;17.974;2023-07-22T07:12:24;2.88;;;0.82;;
71475;SDS011;59286;59.274;17.974;2023-07-22T07:14:52;2.63;;;0.73;;
71475;SDS011;59286;59.274;17.974;2023-07-22T07:17:18;2.97;;;0.70;;
71475;SDS011;59286;59.274;17.974;2023-07-22T07:19:44;2.45;;;0.93;;
71475;SDS011;59286;59.274;17.974;2023-07-22T07:22:09;3.20;;;0.75;;
71475;SDS011;59286;59.274;17.974;2023-07-22T07:24:34;6.22;;;1.00;;
71475;SDS011;59286;59.274;17.974;2023-07-22T07:27:00;2.72;;;0.60;;
71475;SDS011;59286;59.274;17.974;2023-07-22T07:29:25;3.25;;;0.60;;
71475;SDS011;59286;59.274;17.974;2023-07-22T07:31:50;2.03;;;0.60;;
71475;SDS011;59286;59.274;17.974;2023-07-22T07:34:16;4.20;;;0.80;;
71475;SDS011;59286;59.274;17.974;2023-07-22T07:36:41;3.58;;;0.60;;
71475;SDS011;59286;59.274;17.974;2023-07-22T07:39:07;2.72;;;0.63;;
71475;SDS011;59286;59.274;17.974;2023-07-22T07:41:32;2.30;;;0.57;;
71475;SDS011;59286;59.274;17.974;2023-07-22T07:43:58;2.45;;;0.60;;
71475;SDS011;59286;59.274;17.974;2023-07-22T07:46:24;3.28;;;0.57;;
71475;SDS011;59286;59.274;17.974;2023-07-22T07:48:52;2.88;;;0.60;;
71475;SDS011;59286;59.274;17.974;2023-07-22T07:51:20;1.70;;;0.50;;
71475;SDS011;59286;59.274;17.974;2023-07-22T07:53:46;2.08;;;0.50;;
71475;SDS011;59286;59.274;17.974;2023-07-22T07:56:12;2.50;;;0.60;;
71475;SDS011;59286;59.274;17.974;2023-07-22T07:58:38;2.78;;;0.50;;
71475;SDS011;59286;59.274;17.974;2023-07-22T08:01:04;1.73;;;0.50;;
71475;SDS011;59286;59.274;17.974;2023-07-22T08:03:30;2.55;;;0.40;;
71475;SDS011;59286;59.274;17.974;2023-07-22T08:05:56;1.95;;;0.43;;
71475;SDS011;59286;59.274;17.974;2023-07-22T08:08:21;6.03;;;0.50;;
71475;SDS011;59286;59.274;17.974;2023-07-22T08:10:47;4.35;;;0.70;;
71475;SDS011;59286;59.274;17.974;2023-07-22T08:13:13;1.90;;;0.50;;
71475;SDS011;59286;59.274;17.974;2023-07-22T08:15:39;1.05;;;0.50;;
71475;SDS011;59286;59.274;17.974;2023-07-22T08:18:06;1.90;;;0.60;;
71475;SDS011;59286;59.274;17.974;2023-07-22T08:20:32;1.63;;;0.40;;
71475;SDS011;59286;59.274;17.974;2023-07-22T08:22:57;4.95;;;0.80;;
71475;SDS011;59286;59.274;17.974;2023-07-22T08:25:23;4.25;;;0.60;;
71475;SDS011;59286;59.274;17.974;2023-07-22T08:27:48;4.53;;;0.55;;
71475;SDS011;59286;59.274;17.974;2023-07-22T08:30:13;1.33;;;0.65;;
71475;SDS011;59286;59.274;17.974;2023-07-22T08:32:38;2.20;;;0.50;;
71475;SDS011;59286;59.274;17.974;2023-07-22T08:35:04;1.20;;;0.57;;
71475;SDS011;59286;59.274;17.974;2023-07-22T08:37:30;3.45;;;0.60;;
71475;SDS011;59286;59.274;17.974;2023-07-22T08:39:56;2.85;;;0.50;;
71475;SDS011;59286;59.274;17.974;2023-07-22T08:42:21;2.47;;;0.68;;
71475;SDS011;59286;59.274;17.974;2023-07-22T08:44:50;3.33;;;0.40;;
71475;SDS011;59286;59.274;17.974;2023-07-22T08:47:21;1.67;;;0.60;;
71475;SDS011;59286;59.274;17.974;2023-07-22T08:49:49;2.67;;;0.68;;
71475;SDS011;59286;59.274;17.974;2023-07-22T08:52:16;1.80;;;0.40;;
71475;SDS011;59286;59.274;17.974;2023-07-22T08:54:43;1.30;;;0.50;;
71475;SDS011;59286;59.274;17.974;2023-07-22T08:57:09;2.80;;;0.40;;
71475;SDS011;59286;59.274;17.974;2023-07-22T08:59:36;2.72;;;0.40;;
71475;SDS011;59286;59.274;17.974;2023-07-22T09:02:02;2.70;;;0.30;;
71475;SDS011;59286;59.274;17.974;2023-07-22T09:04:28;2.47;;;0.55;;
71475;SDS011;59286;59.274;17.974;2023-07-22T09:06:54;1.00;;;0.32;;
71475;SDS011;59286;59.274;17.974;2023-07-22T09:09:21;1.58;;;0.57;;
71475;SDS011;59286;59.274;17.974;2023-07-22T09:11:47;1.65;;;0.70;;
71475;SDS011;59286;59.274;17.974;2023-07-22T09:14:13;2.97;;;0.52;;
71475;SDS011;59286;59.274;17.974;2023-07-22T09:16:38;2.95;;;0.50;;
71475;SDS011;59286;59.274;17.974;2023-07-22T09:19:04;2.25;;;0.57;;
71475;SDS011;59286;59.274;17.974;2023-07-22T09:21:30;1.58;;;0.50;;
71475;SDS011;59286;59.274;17.974;2023-07-22T09:23:56;2.30;;;0.50;;
71475;SDS011;59286;59.274;17.974;2023-07-22T09:26:21;2.70;;;0.57;;
71475;SDS011;59286;59.274;17.974;2023-07-22T09:28:57;3.22;;;0.70;;
71475;SDS011;59286;59.274;17.974;2023-07-22T09:31:26;3.25;;;0.55;;
71475;SDS011;59286;59.274;17.974;2023-07-22T09:33:56;4.20;;;0.40;;
71475;SDS011;59286;59.274;17.974;2023-07-22T09:36:48;1.58;;;0.60;;
71475;SDS011;59286;59.274;17.974;2023-07-22T09:39:17;3.83;;;0.60;;
71475;SDS011;59286;59.274;17.974;2023-07-22T09:41:43;1.83;;;0.30;;
71475;SDS011;59286;59.274;17.974;2023-07-22T09:44:11;2.03;;;0.50;;
71475;SDS011;59286;59.274;17.974;2023-07-22T09:46:37;1.58;;;0.60;;
71475;SDS011;59286;59.274;17.974;2023-07-22T09:49:03;3.95;;;0.55;;
71475;SDS011;59286;59.274;17.974;2023-07-22T09:51:36;1.63;;;0.40;;
71475;SDS011;59286;59.274;17.974;2023-07-22T09:54:03;1.40;;;0.50;;
71475;SDS011;59286;59.274;17.974;2023-07-22T09:56:30;1.23;;;0.40;;
71475;SDS011;59286;59.274;17.974;2023-07-22T09:58:59;2.25;;;0.60;;
71475;SDS011;59286;59.274;17.974;2023-07-22T10:01:32;3.78;;;0.75;;
71475;SDS011;59286;59.274;17.974;2023-07-22T10:04:00;1.63;;;0.50;;
71475;SDS011;59286;59.274;17.974;2023-07-22T10:06:28;2.47;;;0.60;;
71475;SDS011;59286;59.274;17.974;2023-07-22T10:09:04;2.78;;;0.70;;
71475;SDS011;59286;59.274;17.974;2023-07-22T10:11:36;1.85;;;0.50;;
71475;SDS011;59286;59.274;17.974;2023-07-22T10:14:04;1.67;;;0.63;;
71475;SDS011;59286;59.274;17.974;2023-07-22T10:16:39;2.33;;;0.70;;
71475;SDS011;59286;59.274;17.974;2023-07-22T10:19:06;2.60;;;0.70;;
71475;SDS011;59286;59.274;17.974;2023-07-22T10:21:34;1.00;;;0.50;;
71475;SDS011;59286;59.274;17.974;2023-07-22T10:24:01;1.80;;;0.77;;
71475;SDS011;59286;59.274;17.974;2023-07-22T10:26:28;2.60;;;0.85;;
71475;SDS011;59286;59.274;17.974;2023-07-22T10:28:53;2.78;;;0.70;;
71475;SDS011;59286;59.274;17.974;2023-07-22T10:31:21;2.25;;;0.85;;
71475;SDS011;59286;59.274;17.974;2023-07-22T10:33:47;1.80;;;0.70;;
71475;SDS011;59286;59.274;17.974;2023-07-22T10:36:14;2.55;;;0.88;;
71475;SDS011;59286;59.274;17.974;2023-07-22T10:38:41;1.90;;;0.80;;
71475;SDS011;59286;59.274;17.974;2023-07-22T10:41:13;1.73;;;0.70;;
71475;SDS011;59286;59.274;17.974;2023-07-22T10:44:05;4.40;;;0.82;;
71475;SDS011;59286;59.274;17.974;2023-07-22T10:46:35;3.88;;;0.95;;
71475;SDS011;59286;59.274;17.974;2023-07-22T10:49:09;3.60;;;0.70;;
71475;SDS011;59286;59.274;17.974;2023-07-22T10:51:36;0.90;;;0.70;;
71475;SDS011;59286;59.274;17.974;2023-07-22T10:54:02;3.17;;;0.90;;
71475;SDS011;59286;59.274;17.974;2023-07-22T10:56:28;2.50;;;0.80;;
71475;SDS011;59286;59.274;17.974;2023-07-22T11:06:32;2.53;;;0.98;;
71475;SDS011;59286;59.274;17.974;2023-07-22T11:08:58;3.00;;;1.10;;
71475;SDS011;59286;59.274;17.974;2023-07-22T11:11:36;2.40;;;0.90;;
71475;SDS011;59286;59.274;17.974;2023-07-22T11:14:16;2.45;;;0.95;;
71475;SDS011;59286;59.274;17.974;2023-07-22T11:16:43;4.53;;;1.10;;
71475;SDS011;59286;59.274;17.974;2023-07-22T11:19:10;2.13;;;1.02;;
71475;SDS011;59286;59.274;17.974;2023-07-22T11:21:36;2.35;;;1.25;;
71475;SDS011;59286;59.274;17.974;2023-07-22T11:24:03;2.95;;;0.93;;
71475;SDS011;59286;59.274;17.974;2023-07-22T11:26:29;2.35;;;0.90;;
71475;SDS011;59286;59.274;17.974;2023-07-22T11:28:55;2.58;;;0.90;;
71475;SDS011;59286;59.274;17.974;2023-07-22T11:31:22;1.60;;;0.90;;
71475;SDS011;59286;59.274;17.974;2023-07-22T11:33:47;1.30;;;0.80;;
71475;SDS011;59286;59.274;17.974;2023-07-22T11:36:13;0.70;;;0.70;;
71475;SDS011;59286;59.274;17.974;2023-07-22T11:38:39;1.88;;;1.08;;
71475;SDS011;59286;59.274;17.974;2023-07-22T11:41:05;1.65;;;1.10;;
71475;SDS011;59286;59.274;17.974;2023-07-22T11:43:30;2.20;;;1.13;;
71475;SDS011;59286;59.274;17.974;2023-07-22T11:45:56;3.80;;;1.10;;
71475;SDS011;59286;59.274;17.974;2023-07-22T11:48:22;1.85;;;1.20;;
71475;SDS011;59286;59.274;17.974;2023-07-22T11:50:47;2.00;;;1.00;;
71475;SDS011;59286;59.274;17.974;2023-07-22T11:53:13;3.00;;;1.55;;
71475;SDS011;59286;59.274;17.974;2023-07-22T11:55:39;1.38;;;1.08;;
71475;SDS011;59286;59.274;17.974;2023-07-22T11:58:05;2.25;;;1.20;;
71475;SDS011;59286;59.274;17.974;2023-07-22T12:00:32;3.42;;;1.40;;
71475;SDS011;59286;59.274;17.974;2023-07-22T12:03:04;2.90;;;1.48;;
71475;SDS011;59286;59.274;17.974;2023-07-22T12:05:30;2.10;;;1.27;;
71475;SDS011;59286;59.274;17.974;2023-07-22T12:08:00;1.75;;;1.50;;
71475;SDS011;59286;59.274;17.974;2023-07-22T12:10:28;1.60;;;1.20;;
71475;SDS011;59286;59.274;17.974;2023-07-22T12:12:54;2.80;;;1.50;;
71475;SDS011;59286;59.274;17.974;2023-07-22T12:15:20;3.60;;;1.50;;
71475;SDS011;59286;59.274;17.974;2023-07-22T12:18:00;2.92;;;1.65;;
71475;SDS011;59286;59.274;17.974;2023-07-22T12:20:27;3.13;;;1.73;;
71475;SDS011;59286;59.274;17.974;2023-07-22T12:22:58;2.40;;;1.52;;
71475;SDS011;59286;59.274;17.974;2023-07-22T12:25:23;1.70;;;1.20;;
71475;SDS011;59286;59.274;17.974;2023-07-22T12:27:49;2.22;;;1.60;;
71475;SDS011;59286;59.274;17.974;2023-07-22T12:30:15;2.42;;;1.60;;
71475;SDS011;59286;59.274;17.974;2023-07-22T12:32:41;3.20;;;1.58;;
71475;SDS011;59286;59.274;17.974;2023-07-22T12:35:06;3.10;;;1.50;;
71475;SDS011;59286;59.274;17.974;2023-07-22T12:37:32;3.38;;;1.65;;
71475;SDS011;59286;59.274;17.974;2023-07-22T12:39:58;2.50;;;1.48;;
71475;SDS011;59286;59.274;17.974;2023-07-22T12:42:23;3.28;;;1.48;;
71475;SDS011;59286;59.274;17.974;2023-07-22T12:44:49;2.20;;;1.70;;
71475;SDS011;59286;59.274;17.974;2023-07-22T12:47:14;2.70;;;1.55;;
71475;SDS011;59286;59.274;17.974;2023-07-22T12:49:39;2.30;;;1.45;;
71475;SDS011;59286;59.274;17.974;2023-07-22T12:52:05;3.88;;;1.50;;
71475;SDS011;59286;59.274;17.974;2023-07-22T12:54:34;1.55;;;1.40;;
71475;SDS011;59286;59.274;17.974;2023-07-22T12:57:00;2.35;;;1.75;;
71475;SDS011;59286;59.274;17.974;2023-07-22T12:59:26;3.47;;;1.70;;
71475;SDS011;59286;59.274;17.974;2023-07-22T13:01:51;2.65;;;1.42;;
71475;SDS011;59286;59.274;17.974;2023-07-22T13:04:16;2.50;;;1.25;;
71475;SDS011;59286;59.274;17.974;2023-07-22T13:06:42;4.13;;;1.67;;
71475;SDS011;59286;59.274;17.974;2023-07-22T13:09:07;3.08;;;1.70;;
71475;SDS011;59286;59.274;17.974;2023-07-22T13:11:34;5.22;;;2.00;;
71475;SDS011;59286;59.274;17.974;2023-07-22T13:14:01;2.65;;;1.88;;
71475;SDS011;59286;59.274;17.974;2023-07-22T13:16:26;2.80;;;2.00;;
71475;SDS011;59286;59.274;17.974;2023-07-22T13:18:52;2.80;;;1.67;;
71475;SDS011;59286;59.274;17.974;2023-07-22T13:21:17;2.47;;;1.50;;
71475;SDS011;59286;59.274;17.974;2023-07-22T13:23:42;3.75;;;1.70;;
71475;SDS011;59286;59.274;17.974;2023-07-22T13:26:08;3.92;;;2.05;;
71475;SDS011;59286;59.274;17.974;2023-07-22T13:28:33;2.95;;;1.70;;
71475;SDS011;59286;59.274;17.974;2023-07-22T13:30:58;2.95;;;1.50;;
71475;SDS011;59286;59.274;17.974;2023-07-22T13:33:24;2.45;;;1.40;;
71475;SDS011;59286;59.274;17.974;2023-07-22T13:35:49;4.55;;;1.73;;
71475;SDS011;59286;59.274;17.974;2023-07-22T13:38:15;4.90;;;1.77;;
71475;SDS011;59286;59.274;17.974;2023-07-22T13:40:41;3.30;;;1.60;;
71475;SDS011;59286;59.274;17.974;2023-07-22T13:43:06;3.50;;;1.70;;
71475;SDS011;59286;59.274;17.974;2023-07-22T13:45:32;3.90;;;1.90;;
71475;SDS011;59286;59.274;17.974;2023-07-22T13:47:57;3.33;;;1.70;;
71475;SDS011;59286;59.274;17.974;2023-07-22T13:50:23;5.95;;;2.17;;
71475;SDS011;59286;59.274;17.974;2023-07-22T13:52:48;9.00;;;3.20;;
71475;SDS011;59286;59.274;17.974;2023-07-22T13:55:14;2.67;;;1.63;;
71475;SDS011;59286;59.274;17.974;2023-07-22T13:57:40;2.30;;;1.52;;
71475;SDS011;59286;59.274;17.974;2023-07-22T14:00:05;2.83;;;1.80;;
71475;SDS011;59286;59.274;17.974;2023-07-22T14:02:35;5.57;;;2.30;;
71475;SDS011;59286;59.274;17.974;2023-07-22T14:05:00;2.97;;;1.70;;
71475;SDS011;59286;59.274;17.974;2023-07-22T14:07:26;5.13;;;1.85;;
71475;SDS011;59286;59.274;17.974;2023-07-22T14:09:51;5.05;;;1.98;;
71475;SDS011;59286;59.274;17.974;2023-07-22T14:12:18;4.53;;;1.90;;
71475;SDS011;59286;59.274;17.974;2023-07-22T14:14:43;2.13;;;1.63;;
71475;SDS011;59286;59.274;17.974;2023-07-22T14:17:08;2.17;;;1.73;;
71475;SDS011;59286;59.274;17.974;2023-07-22T14:19:34;3.40;;;1.65;;
71475;SDS011;59286;59.274;17.974;2023-07-22T14:21:59;3.55;;;2.00;;
71475;SDS011;59286;59.274;17.974;2023-07-22T14:24:24;3.60;;;1.85;;
71475;SDS011;59286;59.274;17.974;2023-07-22T14:26:50;3.22;;;1.70;;
71475;SDS011;59286;59.274;17.974;2023-07-22T14:29:15;4.50;;;2.00;;
71475;SDS011;59286;59.274;17.974;2023-07-22T14:31:42;5.03;;;1.88;;
71475;SDS011;59286;59.274;17.974;2023-07-22T14:34:07;3.90;;;1.88;;
71475;SDS011;59286;59.274;17.974;2023-07-22T14:36:33;2.30;;;1.80;;